Nursery, Texas
Current Conditions -  °F | °C
As of 8:04 AM on Friday 19 Dec 2014 (Local Time) from KVCT Reporting Station
Light Rain Light Rain  
Wind Chill: 57°   Ceiling: 600
Heat Index: 57°   Visibility: 6mi
Dew Point: 55°   Wind: 9mph
Humidity: 93%   Direction: 350°N
Pressure: 30.02"   Gusts: NA
Location:  28.92°N, 97.1°W
Report Text: KVCT 191404Z 35008KT 6SM -RA BR BKN006 BKN019 OVC031 14/13 A3002 RMK AO2 LTG DSNT S P0003 T01390128
Loading
Personal Weather Stations






























Interactive Weather Map New forecast layout! Learn more

10-Day Weather Forecast

Advertisements
Track Severe Weather on mobile